Time;durP1;ratioP1;P1;durP2;ratioP2;P2;SDS_P1;SDS_P2;PMS_P1;PMS_P2;Temp;Humidity;BMP_temperature;BMP_pressure;BME280_temperature;BME280_humidity;BME280_pressure;Samples;Min_cycle;Max_cycle;Signal;HPM_P1;HPM_P2
2022/03/09 00:01:45;;;;;;;42.07;24.03;;;;;;;1.59;nan;-23860.16;4992167;28;20212;-72
2022/03/09 00:04:10;;;;;;;41.43;23.67;;;;;;;1.32;nan;-23852.59;4992507;28;20206;-72
2022/03/09 00:06:35;;;;;;;46.87;24.33;;;;;;;1.81;nan;-23866.16;4992133;28;20211;-72
2022/03/09 00:09:01;;;;;;;43.37;24.23;;;;;;;1.68;nan;-23862.75;4992227;28;20637;-72
2022/03/09 00:11:27;;;;;;;46.80;25.20;;;;;;;1.68;nan;-23862.59;4992312;28;20334;-72
2022/03/09 00:13:52;;;;;;;46.53;24.57;;;;;;;1.62;nan;-23860.88;4992368;28;20652;-72
2022/03/09 00:16:18;;;;;;;48.50;25.53;;;;;;;1.24;nan;-23850.31;5023786;28;20183;-73
2022/03/09 00:18:43;;;;;;;44.47;25.20;;;;;;;1.47;nan;-23856.75;4992105;28;20311;-72
2022/03/09 00:21:09;;;;;;;48.63;25.17;;;;;;;1.49;nan;-23857.31;5023505;28;20333;-72
2022/03/09 00:23:34;;;;;;;50.23;26.50;;;;;;;0.86;nan;-23839.59;4991799;28;20629;-72
2022/03/09 00:25:59;;;;;;;48.80;25.57;;;;;;;1.22;nan;-23849.72;4992058;28;20610;-72
2022/03/09 00:28:25;;;;;;;45.20;24.53;;;;;;;0.90;nan;-23840.59;4992155;28;20185;-72
2022/03/09 00:30:51;;;;;;;49.10;25.17;;;;;;;1.37;nan;-23853.75;4990761;28;20191;-72
2022/03/09 00:33:16;;;;;;;47.87;25.13;;;;;;;1.42;nan;-23855.16;4992051;28;20166;-72
2022/03/09 00:35:44;;;;;;;52.33;27.63;;;;;;;1.23;nan;-23849.88;4990488;28;20664;-72
2022/03/09 00:38:10;;;;;;;51.20;28.40;;;;;;;1.09;nan;-23845.88;4991869;28;20812;-71
2022/03/09 00:40:37;;;;;;;57.37;29.40;;;;;;;0.94;nan;-23841.59;5022919;28;20716;-71
2022/03/09 00:43:03;;;;;;;58.20;29.03;;;;;;;0.98;nan;-23842.88;4990322;28;20226;-71
2022/03/09 00:45:28;;;;;;;56.40;28.93;;;;;;;1.48;nan;-23856.88;4990635;28;20265;-72
2022/03/09 00:47:53;;;;;;;52.13;27.20;;;;;;;1.39;nan;-23854.31;4994486;28;20647;-72
2022/03/09 00:50:19;;;;;;;51.03;27.73;;;;;;;1.00;nan;-23843.31;4994969;28;20179;-72
2022/03/09 00:52:47;;;;;;;50.03;27.17;;;;;;;1.18;nan;-23848.44;4996105;28;20178;-71
2022/03/09 00:55:13;;;;;;;51.13;26.53;;;;;;;1.16;nan;-23847.88;4995919;28;20170;-71
2022/03/09 00:57:39;;;;;;;49.03;26.23;;;;;;;1.23;nan;-23849.88;4995938;28;20177;-71
2022/03/09 01:00:05;;;;;;;52.30;28.17;;;;;;;1.11;nan;-23846.44;4995513;28;20264;-71
2022/03/09 01:02:31;;;;;;;49.53;28.17;;;;;;;1.55;nan;-23859.03;4996289;28;20191;-71
2022/03/09 01:04:57;;;;;;;50.00;26.80;;;;;;;1.08;nan;-23845.72;4994228;28;20207;-71
2022/03/09 01:07:22;;;;;;;52.93;28.53;;;;;;;1.49;nan;-23857.16;4995175;28;20178;-72
2022/03/09 01:09:48;;;;;;;54.27;27.57;;;;;;;1.53;nan;-23858.31;4995420;28;20183;-73
2022/03/09 01:12:13;;;;;;;53.70;28.33;;;;;;;1.19;nan;-23848.88;4995359;28;20168;-72
2022/03/09 01:14:39;;;;;;;48.47;25.37;;;;;;;0.98;nan;-23842.88;4995464;28;20172;-71
2022/03/09 01:17:04;;;;;;;47.47;25.63;;;;;;;0.84;nan;-23839.00;4994339;28;20752;-72
2022/03/09 01:19:30;;;;;;;49.77;26.23;;;;;;;1.33;nan;-23852.88;4994472;28;20175;-72
2022/03/09 01:21:55;;;;;;;54.47;27.50;;;;;;;1.30;nan;-23851.88;4993003;28;20216;-71
2022/03/09 01:24:20;;;;;;;52.13;26.73;;;;;;;1.31;nan;-23852.31;4995866;28;20186;-71
2022/03/09 01:26:46;;;;;;;55.70;28.40;;;;;;;1.27;nan;-23851.16;4994306;28;20214;-71
2022/03/09 01:29:11;;;;;;;53.03;27.67;;;;;;;1.37;nan;-23853.75;4995573;28;20725;-72
2022/03/09 01:31:37;;;;;;;48.53;27.50;;;;;;;1.38;nan;-23854.16;4995450;28;20198;-72
2022/03/09 01:34:03;;;;;;;49.30;26.83;;;;;;;0.78;nan;-23837.28;4995401;28;20221;-71
2022/03/09 01:36:28;;;;;;;49.40;26.13;;;;;;;1.28;nan;-23851.44;4995114;28;20183;-72
2022/03/09 01:38:54;;;;;;;50.03;26.80;;;;;;;1.33;nan;-23852.75;4995477;28;20185;-72
2022/03/09 01:41:19;;;;;;;48.67;25.77;;;;;;;1.23;nan;-23850.03;4995295;28;20225;-72
2022/03/09 01:43:45;;;;;;;51.87;27.93;;;;;;;1.49;nan;-23857.31;4995112;28;20570;-71
2022/03/09 01:46:10;;;;;;;52.60;29.20;;;;;;;1.46;nan;-23856.47;4995141;28;20295;-74
2022/03/09 01:48:36;;;;;;;49.20;27.40;;;;;;;1.08;nan;-23845.72;4994106;28;20187;-73
2022/03/09 01:51:03;;;;;;;51.27;28.80;;;;;;;1.46;nan;-23856.31;4995496;28;20231;-74
2022/03/09 01:53:28;;;;;;;51.07;26.97;;;;;;;1.08;nan;-23845.72;4995100;28;20323;-73
2022/03/09 01:55:55;;;;;;;56.77;29.67;;;;;;;1.56;nan;-23859.16;4995344;28;20244;-72
2022/03/09 01:58:20;;;;;;;54.17;29.20;;;;;;;1.49;nan;-23857.16;4928184;28;20167;-72
2022/03/09 02:00:46;;;;;;;56.83;29.70;;;;;;;1.48;nan;-23857.03;4994853;28;20179;-72
2022/03/09 02:03:11;;;;;;;51.93;28.13;;;;;;;1.26;nan;-23850.72;4994886;28;20171;-71
2022/03/09 02:05:37;;;;;;;56.20;29.63;;;;;;;1.34;nan;-23853.16;4994059;28;20195;-71
2022/03/09 02:10:48;;;;;;;54.20;29.23;;;;;;;0.92;nan;-23841.00;4994883;28;20575;-71
2022/03/09 02:13:14;;;;;;;57.00;29.83;;;;;;;1.35;nan;-23853.31;4993337;28;20178;-72
2022/03/09 02:15:43;;;;;;;55.40;29.60;;;;;;;1.09;nan;-23845.88;4994888;28;20187;-71
2022/03/09 02:18:08;;;;;;;60.97;30.90;;;;;;;1.40;nan;-23854.75;4994668;28;20575;-71
2022/03/09 02:20:40;;;;;;;52.97;27.70;;;;;;;1.14;nan;-23847.31;4994786;28;20251;-71
2022/03/09 02:23:06;;;;;;;54.93;30.20;;;;;;;1.57;nan;-23859.47;4994585;28;20166;-71
2022/03/09 02:25:31;;;;;;;55.30;29.70;;;;;;;1.42;nan;-23855.16;4994866;28;20567;-72
2022/03/09 02:28:00;;;;;;;57.83;30.03;;;;;;;1.42;nan;-23855.31;4994878;28;20177;-71
2022/03/09 02:30:26;;;;;;;58.30;29.43;;;;;;;1.40;nan;-23854.75;4994160;28;20205;-71
2022/03/09 02:32:51;;;;;;;59.27;31.23;;;;;;;1.52;nan;-23858.03;4992892;28;20212;-71
2022/03/09 02:35:18;;;;;;;60.70;31.73;;;;;;;1.08;nan;-23845.59;4994312;28;20177;-71
2022/03/09 02:37:44;;;;;;;60.93;31.30;;;;;;;0.79;nan;-23837.56;4994471;28;20189;-71
2022/03/09 02:40:12;;;;;;;59.27;30.50;;;;;;;0.91;nan;-23840.72;4994347;28;20175;-71
2022/03/09 02:42:38;;;;;;;55.70;29.30;;;;;;;1.47;nan;-23856.75;4993846;28;20226;-71
2022/03/09 02:45:05;;;;;;;56.83;29.33;;;;;;;1.38;nan;-23854.16;4993903;28;20207;-71
2022/03/09 02:47:30;;;;;;;52.90;27.07;;;;;;;1.40;nan;-23854.75;4993608;28;20197;-72
2022/03/09 02:49:56;;;;;;;52.50;28.43;;;;;;;1.27;nan;-23851.03;4994484;28;20190;-71
2022/03/09 02:52:21;;;;;;;54.17;29.83;;;;;;;0.93;nan;-23841.28;4994292;28;20268;-72
2022/03/09 02:54:47;;;;;;;55.30;29.97;;;;;;;1.41;nan;-23855.03;4994251;28;20667;-72
2022/03/09 02:57:13;;;;;;;54.53;28.47;;;;;;;1.17;nan;-23848.16;4993748;28;20184;-71
2022/03/09 02:59:38;;;;;;;56.83;29.37;;;;;;;1.27;nan;-23851.16;4993923;28;20178;-71
2022/03/09 03:02:04;;;;;;;58.10;30.93;;;;;;;1.34;nan;-23853.03;4993703;28;20661;-72
2022/03/09 03:04:29;;;;;;;60.37;30.87;;;;;;;0.92;nan;-23841.00;4993667;28;20179;-70
2022/03/09 03:06:55;;;;;;;62.87;30.80;;;;;;;1.32;nan;-23852.44;4993889;28;20609;-72
2022/03/09 03:09:20;;;;;;;63.23;32.87;;;;;;;0.95;nan;-23841.88;4993472;28;20174;-71
2022/03/09 03:11:45;;;;;;;65.70;31.70;;;;;;;0.56;nan;-23831.00;4993356;28;20632;-71
2022/03/09 03:14:11;;;;;;;58.13;31.33;;;;;;;0.99;nan;-23843.16;4993451;28;20181;-71
2022/03/09 03:16:36;;;;;;;61.23;32.23;;;;;;;1.59;nan;-23860.03;4992045;28;20186;-71
2022/03/09 03:19:02;;;;;;;62.03;32.23;;;;;;;1.45;nan;-23856.03;4993899;28;20233;-71
2022/03/09 03:21:28;;;;;;;64.93;32.73;;;;;;;1.29;nan;-23851.59;4993588;28;20250;-72
2022/03/09 03:23:53;;;;;;;63.90;32.00;;;;;;;1.10;nan;-23846.31;4993430;28;20177;-72
2022/03/09 03:26:19;;;;;;;62.50;32.37;;;;;;;1.44;nan;-23855.75;4993243;28;20306;-72
2022/03/09 03:28:44;;;;;;;64.67;33.20;;;;;;;1.45;nan;-23856.16;4993218;28;20608;-70
2022/03/09 03:31:09;;;;;;;60.03;32.03;;;;;;;1.63;nan;-23861.16;4993161;28;20606;-71
2022/03/09 03:33:35;;;;;;;65.07;31.90;;;;;;;1.24;nan;-23850.31;4993184;28;20185;-71
2022/03/09 03:36:00;;;;;;;64.07;33.20;;;;;;;1.41;nan;-23854.88;4993425;28;20190;-71
2022/03/09 03:38:26;;;;;;;64.67;33.40;;;;;;;1.66;nan;-23862.19;4993384;28;20184;-72
2022/03/09 03:40:51;;;;;;;59.33;31.40;;;;;;;1.04;nan;-23844.59;4992899;28;20183;-72
2022/03/09 03:43:17;;;;;;;58.03;30.90;;;;;;;1.55;nan;-23858.88;4992794;28;20259;-72
2022/03/09 03:45:42;;;;;;;58.50;30.33;;;;;;;1.14;nan;-23847.31;4992500;28;20201;-73
2022/03/09 03:48:08;;;;;;;57.93;29.07;;;;;;;1.68;nan;-23862.75;4992866;28;20173;-73
2022/03/09 03:50:34;;;;;;;55.90;28.87;;;;;;;1.38;nan;-23854.16;4993139;28;20568;-73
2022/03/09 03:52:59;;;;;;;54.47;29.57;;;;;;;1.53;nan;-23858.31;4993042;28;20175;-72
2022/03/09 03:55:25;;;;;;;56.50;29.17;;;;;;;1.40;nan;-23854.75;4993064;28;20261;-72
2022/03/09 03:57:50;;;;;;;56.27;29.37;;;;;;;1.50;nan;-23857.59;4992829;28;20219;-72
2022/03/09 04:00:16;;;;;;;57.83;29.70;;;;;;;1.65;nan;-23861.88;4992948;28;20175;-72
2022/03/09 04:02:41;;;;;;;56.10;29.63;;;;;;;1.49;nan;-23857.31;4992676;28;20186;-72
2022/03/09 04:05:07;;;;;;;58.30;29.40;;;;;;;1.13;nan;-23847.03;4993042;28;20729;-72
2022/03/09 04:07:33;;;;;;;53.57;28.10;;;;;;;1.63;nan;-23861.16;4992881;28;20174;-72
2022/03/09 04:09:59;;;;;;;55.03;29.20;;;;;;;1.57;nan;-23859.59;4990920;28;20579;-72
2022/03/09 04:12:24;;;;;;;54.47;29.33;;;;;;;1.51;nan;-23857.88;4992364;28;20232;-72
2022/03/09 04:14:52;;;;;;;53.17;27.83;;;;;;;1.03;nan;-23844.16;4991747;28;20193;-72
2022/03/09 04:17:17;;;;;;;53.93;28.33;;;;;;;1.38;nan;-23854.03;4991445;28;20740;-72
2022/03/09 04:19:43;;;;;;;58.33;29.07;;;;;;;1.56;nan;-23859.31;4984424;28;20281;-72
2022/03/09 04:22:09;;;;;;;58.90;30.07;;;;;;;1.13;nan;-23847.03;4990104;28;20198;-72
2022/03/09 04:24:34;;;;;;;56.20;29.03;;;;;;;1.10;nan;-23846.16;4985567;28;20180;-71
2022/03/09 04:27:00;;;;;;;54.17;27.63;;;;;;;1.32;nan;-23852.44;4984858;28;20191;-71
2022/03/09 04:29:25;;;;;;;56.47;30.27;;;;;;;1.03;nan;-23844.16;4984932;28;20190;-71
2022/03/09 04:31:50;;;;;;;57.23;29.63;;;;;;;1.63;nan;-23861.31;4985010;28;20191;-72
2022/03/09 04:34:16;;;;;;;58.83;30.30;;;;;;;1.38;nan;-23854.16;4985166;28;20220;-72
2022/03/09 04:36:42;;;;;;;61.50;31.37;;;;;;;1.23;nan;-23850.03;4985215;28;20701;-72
2022/03/09 04:39:07;;;;;;;61.63;31.60;;;;;;;1.87;nan;-23867.88;4982725;28;20201;-72
2022/03/09 04:41:32;;;;;;;60.67;32.13;;;;;;;1.68;nan;-23862.75;4985607;28;20231;-72
2022/03/09 04:43:58;;;;;;;64.10;32.53;;;;;;;1.13;nan;-23847.16;4984250;28;20184;-72
2022/03/09 04:46:23;;;;;;;66.77;35.27;;;;;;;1.77;nan;-23865.16;4985507;28;20710;-72
2022/03/09 04:48:49;;;;;;;67.10;35.63;;;;;;;1.33;nan;-23852.75;4985173;28;20203;-71
2022/03/09 04:51:16;;;;;;;64.73;34.07;;;;;;;1.30;nan;-23851.88;4981806;28;20176;-72
2022/03/09 04:53:41;;;;;;;67.63;35.40;;;;;;;1.39;nan;-23854.44;4985861;28;20747;-72
2022/03/09 04:56:07;;;;;;;63.53;34.40;;;;;;;1.72;nan;-23863.75;4985319;28;20290;-73
2022/03/09 04:58:32;;;;;;;67.83;35.43;;;;;;;1.85;nan;-23867.31;4985595;28;20614;-73
2022/03/09 05:00:58;;;;;;;59.23;32.57;;;;;;;1.53;nan;-23858.44;4984669;28;20203;-73
2022/03/09 05:03:23;;;;;;;62.47;34.03;;;;;;;1.58;nan;-23859.88;4985949;28;20184;-74
2022/03/09 05:05:49;;;;;;;62.07;33.03;;;;;;;1.61;nan;-23860.59;4985106;28;20660;-73
2022/03/09 05:08:15;;;;;;;62.10;33.27;;;;;;;1.78;nan;-23865.47;4985097;28;20199;-74
2022/03/09 05:10:40;;;;;;;65.17;34.00;;;;;;;1.70;nan;-23863.31;4985167;28;20282;-75
2022/03/09 05:13:06;;;;;;;59.97;32.53;;;;;;;1.63;nan;-23861.16;4984078;28;20234;-74
2022/03/09 05:15:32;;;;;;;60.73;32.33;;;;;;;1.79;nan;-23865.75;4984245;28;20183;-72
2022/03/09 05:17:57;;;;;;;62.57;32.60;;;;;;;1.30;nan;-23852.03;4985436;28;20189;-73
2022/03/09 05:20:23;;;;;;;66.60;36.17;;;;;;;1.66;nan;-23862.19;4984739;28;20220;-74
2022/03/09 05:22:50;;;;;;;63.20;33.37;;;;;;;1.66;nan;-23862.03;4984070;28;20222;-75
2022/03/09 05:25:16;;;;;;;65.27;32.73;;;;;;;1.12;nan;-23846.72;4975842;28;20219;-76
2022/03/09 05:27:42;;;;;;;61.37;32.97;;;;;;;1.60;nan;-23860.47;4984816;28;20666;-75
2022/03/09 05:30:11;;;;;;;58.63;33.00;;;;;;;1.57;nan;-23859.47;4984003;28;20225;-74
2022/03/09 05:32:38;;;;;;;71.40;36.70;;;;;;;1.26;nan;-23850.72;4984640;28;20175;-74
2022/03/09 05:35:05;;;;;;;62.90;32.10;;;;;;;1.42;nan;-23855.16;4988114;28;20517;-73
2022/03/09 05:37:43;;;;;;;68.93;35.80;;;;;;;0.96;nan;-23842.16;4986730;28;20178;-74
2022/03/09 05:40:09;;;;;;;65.40;33.50;;;;;;;1.15;nan;-23847.59;4986983;28;20190;-74
2022/03/09 05:42:35;;;;;;;65.80;33.77;;;;;;;1.53;nan;-23858.44;4987754;28;20223;-73
2022/03/09 05:45:01;;;;;;;67.83;34.20;;;;;;;1.49;nan;-23857.31;4987249;28;20221;-73
2022/03/09 05:47:27;;;;;;;59.90;31.67;;;;;;;1.46;nan;-23856.47;4987874;28;20273;-73
2022/03/09 05:49:52;;;;;;;63.80;32.77;;;;;;;1.77;nan;-23865.16;4987617;28;20183;-74
2022/03/09 05:52:18;;;;;;;63.50;32.83;;;;;;;1.76;nan;-23865.03;4984100;28;20578;-74
2022/03/09 05:54:45;;;;;;;64.87;31.47;;;;;;;1.38;nan;-23854.16;4987175;28;20188;-73
2022/03/09 05:57:12;;;;;;;59.30;30.97;;;;;;;1.88;nan;-23868.31;4986809;28;20260;-74
2022/03/09 05:59:37;;;;;;;59.93;32.17;;;;;;;1.67;nan;-23862.47;4987215;28;20657;-74
2022/03/09 06:02:03;;;;;;;62.83;31.47;;;;;;;1.77;nan;-23865.31;4987579;28;20192;-74
2022/03/09 06:04:29;;;;;;;58.10;31.83;;;;;;;1.65;nan;-23861.88;4987120;28;20206;-73
2022/03/09 06:06:54;;;;;;;59.00;30.50;;;;;;;1.26;nan;-23850.72;4986706;28;20215;-75
2022/03/09 06:09:19;;;;;;;55.67;29.97;;;;;;;1.15;nan;-23847.59;4986660;28;20648;-72
2022/03/09 06:11:45;;;;;;;58.73;30.17;;;;;;;1.50;nan;-23857.47;4987415;28;20190;-73
2022/03/09 06:14:10;;;;;;;60.33;31.17;;;;;;;1.03;nan;-23844.16;4987464;28;20180;-73
2022/03/09 06:16:36;;;;;;;58.27;30.77;;;;;;;1.57;nan;-23859.59;4986198;28;20538;-73
2022/03/09 06:19:01;;;;;;;55.80;29.93;;;;;;;1.66;nan;-23862.03;4986814;28;20254;-73
2022/03/09 06:21:27;;;;;;;55.47;29.67;;;;;;;1.32;nan;-23852.44;4987817;28;20194;-73
2022/03/09 06:23:52;;;;;;;55.57;29.40;;;;;;;1.44;nan;-23855.88;4987083;28;20660;-74
2022/03/09 06:26:18;;;;;;;53.30;28.53;;;;;;;1.55;nan;-23858.88;4986147;28;20605;-75
2022/03/09 06:28:44;;;;;;;56.27;30.27;;;;;;;1.58;nan;-23859.88;4986172;28;20274;-74
2022/03/09 06:31:09;;;;;;;57.33;29.70;;;;;;;1.19;nan;-23848.88;4986246;28;20182;-74
2022/03/09 06:33:34;;;;;;;57.60;29.90;;;;;;;1.26;nan;-23850.72;4985457;28;20208;-74
2022/03/09 06:36:00;;;;;;;52.83;28.87;;;;;;;1.56;nan;-23859.31;4987296;28;20614;-74
2022/03/09 06:38:26;;;;;;;60.63;30.80;;;;;;;1.34;nan;-23853.03;4987123;28;20290;-75
2022/03/09 06:40:52;;;;;;;56.60;29.47;;;;;;;1.47;nan;-23856.59;4985979;28;20646;-74
2022/03/09 06:43:17;;;;;;;53.30;28.30;;;;;;;1.60;nan;-23860.47;4987284;28;20662;-73
2022/03/09 06:45:43;;;;;;;57.60;29.60;;;;;;;1.01;nan;-23843.59;4985595;28;20212;-73
2022/03/09 06:48:08;;;;;;;57.03;29.73;;;;;;;1.44;nan;-23855.88;4986324;28;20271;-73
2022/03/09 06:50:34;;;;;;;61.47;31.17;;;;;;;1.44;nan;-23855.88;4985440;28;20284;-73
2022/03/09 06:53:00;;;;;;;60.80;31.60;;;;;;;1.46;nan;-23856.47;4986582;28;20198;-73
2022/03/09 06:55:26;;;;;;;57.93;29.97;;;;;;;1.55;nan;-23859.03;4985590;28;20187;-73
2022/03/09 06:57:52;;;;;;;58.33;29.97;;;;;;;1.73;nan;-23864.16;4985759;28;20204;-74
2022/03/09 07:00:19;;;;;;;62.77;31.40;;;;;;;2.07;nan;-23873.59;4985073;28;20663;-73
2022/03/09 07:02:45;;;;;;;59.20;30.60;;;;;;;1.84;nan;-23867.19;4986758;28;20189;-73
2022/03/09 07:05:11;;;;;;;61.43;31.60;;;;;;;2.13;nan;-23875.47;4984487;28;20286;-73
2022/03/09 07:07:38;;;;;;;55.07;29.70;;;;;;;1.95;nan;-23870.31;4985632;28;20188;-73
2022/03/09 07:10:05;;;;;;;58.67;30.60;;;;;;;2.01;nan;-23871.88;4986144;28;20176;-73
2022/03/09 07:12:30;;;;;;;55.43;29.60;;;;;;;2.46;nan;-23884.59;4977059;28;20196;-73
2022/03/09 07:14:56;;;;;;;52.07;27.63;;;;;;;1.71;nan;-23863.47;4985719;28;20268;-72
2022/03/09 07:17:21;;;;;;;55.00;27.80;;;;;;;2.06;nan;-23873.31;4985882;28;21004;-72
2022/03/09 07:19:47;;;;;;;52.30;27.63;;;;;;;1.65;nan;-23861.88;4985671;28;20212;-72
2022/03/09 07:22:12;;;;;;;50.40;28.60;;;;;;;1.52;nan;-23858.03;4985350;28;20239;-73
2022/03/09 07:24:38;;;;;;;51.60;27.60;;;;;;;2.20;nan;-23877.47;4985539;28;20184;-73
2022/03/09 07:27:04;;;;;;;53.57;29.07;;;;;;;2.04;nan;-23872.88;4985872;28;20703;-73
2022/03/09 07:29:29;;;;;;;47.67;26.23;;;;;;;2.25;nan;-23878.59;4976874;28;20652;-73
2022/03/09 07:31:55;;;;;;;53.30;28.50;;;;;;;2.58;nan;-23888.03;4986115;28;20584;-73
2022/03/09 07:34:26;;;;;;;48.00;25.53;;;;;;;2.42;nan;-23883.59;4985127;28;20621;-73
2022/03/09 07:36:58;;;;;;;48.03;26.43;;;;;;;2.98;nan;-23899.28;4984706;28;20291;-73
2022/03/09 07:39:28;;;;;;;47.33;25.17;;;;;;;2.64;nan;-23889.72;4984504;28;20184;-73
2022/03/09 07:41:55;;;;;;;49.50;26.30;;;;;;;2.46;nan;-23884.59;4984925;28;20314;-73
2022/03/09 07:44:21;;;;;;;47.90;26.37;;;;;;;2.74;nan;-23892.59;4984460;28;20677;-74
2022/03/09 07:46:47;;;;;;;47.93;25.70;;;;;;;2.47;nan;-23885.03;4986326;28;20214;-74
2022/03/09 07:49:13;;;;;;;51.60;27.73;;;;;;;2.50;nan;-23885.88;4977181;28;20177;-75
2022/03/09 07:51:38;;;;;;;50.10;27.87;;;;;;;2.41;nan;-23883.31;4985857;28;20181;-73
2022/03/09 07:54:04;;;;;;;50.53;26.97;;;;;;;3.24;nan;-23906.72;4985539;28;20678;-74
2022/03/09 07:56:31;;;;;;;48.27;27.20;;;;;;;3.30;nan;-23908.41;4985333;28;20185;-75
2022/03/09 07:58:56;;;;;;;49.90;28.13;;;;;;;3.23;nan;-23906.44;4986242;28;20188;-74
2022/03/09 08:01:22;;;;;;;51.70;27.73;;;;;;;3.46;nan;-23912.84;4985974;28;20229;-74
2022/03/09 08:03:48;;;;;;;46.10;26.07;;;;;;;2.90;nan;-23897.00;4986104;28;20176;-76
2022/03/09 08:06:14;;;;;;;43.23;25.80;;;;;;;3.39;nan;-23910.84;4984016;28;20242;-74
2022/03/09 08:08:39;;;;;;;48.70;27.37;;;;;;;3.84;nan;-23923.66;4985857;28;20393;-74
2022/03/09 08:11:05;;;;;;;50.10;27.03;;;;;;;3.91;nan;-23925.53;4985727;28;20674;-74
2022/03/09 08:13:31;;;;;;;51.13;27.57;;;;;;;3.44;nan;-23912.41;4985148;28;20181;-75
2022/03/09 08:15:56;;;;;;;50.00;27.53;;;;;;;3.86;nan;-23924.25;4985366;28;20216;-73
2022/03/09 08:18:22;;;;;;;51.67;29.03;;;;;;;3.61;nan;-23917.13;4985905;28;20220;-72
2022/03/09 08:20:47;;;;;;;50.37;28.33;;;;;;;3.65;nan;-23918.25;4984783;28;20184;-73
2022/03/09 08:23:13;;;;;;;53.47;29.67;;;;;;;4.45;nan;-23940.75;4985332;28;20204;-73
2022/03/09 08:25:38;;;;;;;53.00;28.50;;;;;;;4.50;nan;-23942.03;4985322;28;20205;-73
2022/03/09 08:28:04;;;;;;;49.20;27.17;;;;;;;3.93;nan;-23926.09;4986012;28;20561;-74
2022/03/09 08:30:29;;;;;;;47.37;27.63;;;;;;;4.36;nan;-23938.34;4976533;28;20184;-74
2022/03/09 08:32:55;;;;;;;50.63;28.83;;;;;;;4.64;nan;-23946.03;4985902;28;20259;-74
2022/03/09 08:35:21;;;;;;;49.03;28.33;;;;;;;4.76;nan;-23949.59;4985180;28;20267;-74
2022/03/09 08:37:46;;;;;;;48.23;28.13;;;;;;;4.71;nan;-23948.03;4984337;28;20200;-75
2022/03/09 08:40:12;;;;;;;48.50;27.40;;;;;;;5.02;nan;-23956.84;4983617;28;20185;-74
2022/03/09 08:42:38;;;;;;;48.23;27.43;;;;;;;5.25;nan;-23963.38;4983927;28;20228;-74
2022/03/09 08:45:04;;;;;;;51.80;28.37;;;;;;;5.30;nan;-23964.81;4981784;28;20651;-73
2022/03/09 08:47:30;;;;;;;45.70;26.00;;;;;;;5.20;nan;-23961.97;4985130;28;20177;-73
2022/03/09 08:49:57;;;;;;;45.27;26.43;;;;;;;4.37;nan;-23938.63;4985663;28;20184;-74
2022/03/09 08:52:23;;;;;;;45.90;25.90;;;;;;;5.09;nan;-23958.81;4986553;28;20632;-72
2022/03/09 08:54:53;;;;;;;46.00;26.27;;;;;;;5.57;nan;-23972.34;4984718;28;20251;-74
2022/03/09 08:57:20;;;;;;;45.37;26.13;;;;;;;5.34;nan;-23965.78;4984316;28;20674;-74
2022/03/09 08:59:45;;;;;;;43.27;25.47;;;;;;;5.30;nan;-23964.66;4985293;28;20235;-75
2022/03/09 09:02:11;;;;;;;45.07;25.07;;;;;;;4.85;nan;-23952.00;4985112;28;20185;-75
2022/03/09 09:04:37;;;;;;;43.20;25.73;;;;;;;3.94;nan;-23926.38;4978618;28;20184;-75
2022/03/09 09:07:03;;;;;;;45.57;25.57;;;;;;;5.04;nan;-23957.41;4985280;28;20200;-74
2022/03/09 09:09:28;;;;;;;40.40;25.57;;;;;;;5.25;nan;-23963.25;4987472;28;20188;-75
2022/03/09 09:11:54;;;;;;;44.53;25.10;;;;;;;5.22;nan;-23962.53;4988585;28;20556;-74
2022/03/09 09:14:20;;;;;;;41.90;26.07;;;;;;;5.49;nan;-23969.91;4987783;28;20282;-75
2022/03/09 09:16:45;;;;;;;41.13;24.13;;;;;;;5.67;nan;-23975.19;4988146;28;20600;-74
2022/03/09 09:19:11;;;;;;;40.70;24.60;;;;;;;5.23;nan;-23962.81;4988753;28;20188;-74
2022/03/09 09:21:37;;;;;;;44.20;25.23;;;;;;;5.59;nan;-23972.91;4986641;28;20181;-74
2022/03/09 09:24:03;;;;;;;43.27;24.47;;;;;;;5.15;nan;-23960.53;4988518;28;20175;-74
2022/03/09 09:26:29;;;;;;;41.73;24.63;;;;;;;5.38;nan;-23966.78;4987994;28;20201;-74
2022/03/09 09:28:54;;;;;;;37.13;22.47;;;;;;;5.20;nan;-23961.81;4988575;28;20196;-74
2022/03/09 09:31:19;;;;;;;43.83;25.40;;;;;;;5.94;nan;-23982.72;4987955;28;20200;-76
2022/03/09 09:33:45;;;;;;;43.30;26.03;;;;;;;6.14;nan;-23988.25;4987597;28;20180;-75
2022/03/09 09:36:10;;;;;;;43.70;25.23;;;;;;;5.74;nan;-23977.16;4988145;28;20610;-74
2022/03/09 09:38:36;;;;;;;40.60;24.70;;;;;;;5.82;nan;-23979.31;4988882;28;20177;-74
2022/03/09 09:41:01;;;;;;;42.43;25.57;;;;;;;5.88;nan;-23981.00;4987911;28;20181;-74
2022/03/09 09:43:27;;;;;;;44.60;25.50;;;;;;;5.37;nan;-23966.66;4986386;28;20676;-74
2022/03/09 09:45:52;;;;;;;42.27;25.27;;;;;;;5.05;nan;-23957.53;4987822;28;20208;-74
2022/03/09 09:48:19;;;;;;;40.77;23.90;;;;;;;5.52;nan;-23970.91;4989023;28;20180;-75
2022/03/09 09:50:45;;;;;;;39.10;23.20;;;;;;;5.04;nan;-23957.41;4985579;28;20268;-75
2022/03/09 09:53:14;;;;;;;38.60;22.47;;;;;;;5.60;nan;-23973.03;4987995;28;20188;-75
2022/03/09 09:55:41;;;;;;;36.83;22.33;;;;;;;5.40;nan;-23967.38;4987992;28;20236;-75
2022/03/09 09:58:07;;;;;;;36.13;22.10;;;;;;;5.46;nan;-23969.06;4987329;28;20569;-75
2022/03/09 10:00:32;;;;;;;37.60;22.20;;;;;;;4.98;nan;-23955.56;4988108;28;20654;-75
2022/03/09 10:02:58;;;;;;;36.20;22.67;;;;;;;5.10;nan;-23958.97;4987992;28;20195;-75
2022/03/09 10:05:25;;;;;;;33.47;20.77;;;;;;;5.35;nan;-23966.09;4987122;28;20204;-73
2022/03/09 10:08:05;;;;;;;36.13;22.00;;;;;;;6.38;nan;-23994.94;4987434;28;20197;-73
2022/03/09 10:10:44;;;;;;;33.50;20.47;;;;;;;6.36;nan;-23994.50;4987629;28;20184;-75
2022/03/09 10:13:20;;;;;;;37.27;23.13;;;;;;;6.54;nan;-23999.47;4979313;28;20689;-74
2022/03/09 10:15:48;;;;;;;36.57;21.87;;;;;;;6.29;nan;-23992.50;4987601;28;20656;-75
2022/03/09 10:18:21;;;;;;;33.60;20.63;;;;;;;6.17;nan;-23989.25;4987344;28;20188;-75
2022/03/09 10:20:49;;;;;;;33.70;21.63;;;;;;;6.25;nan;-23991.22;4986073;28;20373;-75
2022/03/09 10:23:17;;;;;;;33.10;21.13;;;;;;;6.30;nan;-23992.78;4987299;28;20177;-74
2022/03/09 10:25:43;;;;;;;35.73;20.63;;;;;;;6.03;nan;-23985.13;4986897;28;20212;-74
2022/03/09 10:28:12;;;;;;;33.07;20.03;;;;;;;6.06;nan;-23986.13;4987456;28;20239;-74
2022/03/09 10:30:40;;;;;;;32.67;20.50;;;;;;;6.32;nan;-23993.22;4986606;28;20180;-74
2022/03/09 10:33:08;;;;;;;30.83;19.47;;;;;;;5.98;nan;-23983.72;4986154;28;20626;-75
2022/03/09 10:35:33;;;;;;;31.37;19.67;;;;;;;6.16;nan;-23988.81;4986109;28;20236;-74
2022/03/09 10:38:23;;;;;;;32.10;19.70;;;;;;;5.63;nan;-23973.91;4985927;28;20185;-73
2022/03/09 10:40:56;;;;;;;35.07;19.90;;;;;;;5.82;nan;-23979.31;4986239;28;20236;-75
2022/03/09 10:43:28;;;;;;;33.17;20.40;;;;;;;5.41;nan;-23967.78;4985945;28;20220;-74
2022/03/09 10:46:01;;;;;;;35.30;21.03;;;;;;;5.87;nan;-23980.72;4986649;28;20204;-75
2022/03/09 10:48:50;;;;;;;32.73;21.00;;;;;;;6.24;nan;-23990.94;4985863;28;20657;-75
2022/03/09 10:51:34;;;;;;;33.33;20.40;;;;;;;5.94;nan;-23982.72;4983506;28;20185;-74
2022/03/09 10:54:06;;;;;;;31.53;18.40;;;;;;;5.83;nan;-23979.44;4985938;28;20212;-75
2022/03/09 10:56:33;;;;;;;28.90;17.83;;;;;;;6.15;nan;-23988.69;4986357;28;20246;-74
2022/03/09 10:59:20;;;;;;;33.77;19.00;;;;;;;6.17;nan;-23989.09;4983988;28;20184;-74
2022/03/09 11:02:04;;;;;;;25.87;17.17;;;;;;;6.24;nan;-23991.09;4986260;28;20192;-74
2022/03/09 11:04:30;;;;;;;24.13;16.43;;;;;;;6.59;nan;-24000.88;4985805;28;20184;-74
2022/03/09 11:06:57;;;;;;;27.97;17.23;;;;;;;6.61;nan;-24001.47;4986230;28;20212;-75
2022/03/09 11:09:24;;;;;;;28.20;17.03;;;;;;;7.40;nan;-24023.59;4986830;28;20235;-74
2022/03/09 11:11:49;;;;;;;24.90;16.33;;;;;;;7.04;nan;-24013.50;4986495;28;20212;-73
2022/03/09 11:14:17;;;;;;;24.80;16.03;;;;;;;6.84;nan;-24007.84;4986129;28;20643;-73
2022/03/09 11:16:43;;;;;;;25.20;16.47;;;;;;;6.89;nan;-24009.41;4985967;28;20734;-72
2022/03/09 11:19:10;;;;;;;26.33;17.07;;;;;;;6.70;nan;-24004.00;4986753;28;20185;-75
2022/03/09 11:21:36;;;;;;;27.17;16.73;;;;;;;7.01;nan;-24012.81;4985876;28;20184;-75
2022/03/09 11:24:07;;;;;;;26.63;17.60;;;;;;;6.90;nan;-24009.53;4985294;28;20189;-73
2022/03/09 11:26:34;;;;;;;28.17;17.67;;;;;;;7.27;nan;-24019.91;4984858;28;20210;-74
2022/03/09 11:29:05;;;;;;;27.80;17.23;;;;;;;7.99;nan;-24040.31;4985959;28;20220;-71
2022/03/09 11:31:49;;;;;;;26.60;17.60;;;;;;;7.54;nan;-24027.56;4984847;28;20192;-71
2022/03/09 11:34:38;;;;;;;23.67;16.00;;;;;;;7.48;nan;-24026.00;4985650;28;20177;-72